sensor_id;sensor_type;location;lat;lon;timestamp;pressure;altitude;pressure_sealevel;temperature;humidity
42727;BME280;28372;56.832;60.658;2023-06-04T00:02:34;97586.72;;;23.01;58.52
42727;BME280;28372;56.832;60.658;2023-06-04T00:05:02;97596.50;;;23.02;58.03
42727;BME280;28372;56.832;60.658;2023-06-04T00:07:30;97598.81;;;23.03;58.21
42727;BME280;28372;56.832;60.658;2023-06-04T00:09:58;97602.63;;;23.06;58.26
42727;BME280;28372;56.832;60.658;2023-06-04T00:12:26;97601.59;;;23.13;58.68
42727;BME280;28372;56.832;60.658;2023-06-04T00:14:53;97606.63;;;23.14;58.94
42727;BME280;28372;56.832;60.658;2023-06-04T00:17:21;97617.66;;;23.14;58.81
42727;BME280;28372;56.832;60.658;2023-06-04T00:19:49;97620.56;;;23.10;58.51
42727;BME280;28372;56.832;60.658;2023-06-04T00:22:16;97613.97;;;23.08;58.80
42727;BME280;28372;56.832;60.658;2023-06-04T00:24:44;97616.28;;;23.09;59.29
42727;BME280;28372;56.832;60.658;2023-06-04T00:27:12;97614.44;;;23.06;58.87
42727;BME280;28372;56.832;60.658;2023-06-04T00:29:39;97620.28;;;22.99;59.29
42727;BME280;28372;56.832;60.658;2023-06-04T00:32:07;97621.31;;;23.02;59.50
42727;BME280;28372;56.832;60.658;2023-06-04T00:34:35;97615.81;;;23.02;59.45
42727;BME280;28372;56.832;60.658;2023-06-04T00:37:04;97619.03;;;23.00;59.36
42727;BME280;28372;56.832;60.658;2023-06-04T00:39:32;97630.38;;;23.02;59.19
42727;BME280;28372;56.832;60.658;2023-06-04T00:42:00;97627.63;;;23.02;59.31
42727;BME280;28372;56.832;60.658;2023-06-04T00:44:28;97634.66;;;23.03;59.21
42727;BME280;28372;56.832;60.658;2023-06-04T00:46:55;97635.09;;;23.02;59.30
42727;BME280;28372;56.832;60.658;2023-06-04T00:49:24;97642.00;;;22.97;59.84
42727;BME280;28372;56.832;60.658;2023-06-04T00:51:52;97644.16;;;23.02;60.05
42727;BME280;28372;56.832;60.658;2023-06-04T00:54:20;97650.47;;;23.12;59.56
42727;BME280;28372;56.832;60.658;2023-06-04T00:56:48;97641.00;;;23.13;59.48
42727;BME280;28372;56.832;60.658;2023-06-04T00:59:16;97643.44;;;23.20;59.03
42727;BME280;28372;56.832;60.658;2023-06-04T01:04:33;97651.97;;;23.41;58.35
42727;BME280;28372;56.832;60.658;2023-06-04T01:07:04;97653.06;;;23.43;58.17
42727;BME280;28372;56.832;60.658;2023-06-04T01:09:32;97639.44;;;23.40;57.46
42727;BME280;28372;56.832;60.658;2023-06-04T01:12:04;97656.09;;;23.55;58.62
42727;BME280;28372;56.832;60.658;2023-06-04T01:14:32;97653.97;;;23.50;57.13
42727;BME280;28372;56.832;60.658;2023-06-04T01:17:17;97643.84;;;23.56;56.93
42727;BME280;28372;56.832;60.658;2023-06-04T01:20:07;97646.22;;;23.82;59.33
42727;BME280;28372;56.832;60.658;2023-06-04T01:25:34;97656.38;;;23.85;57.96
42727;BME280;28372;56.832;60.658;2023-06-04T01:28:04;97653.75;;;23.81;56.30
42727;BME280;28372;56.832;60.658;2023-06-04T01:30:34;97662.06;;;23.90;56.56
42727;BME280;28372;56.832;60.658;2023-06-04T01:33:03;97655.13;;;23.95;55.92
42727;BME280;28372;56.832;60.658;2023-06-04T01:35:31;97652.19;;;23.99;55.62
42727;BME280;28372;56.832;60.658;2023-06-04T01:37:59;97655.09;;;24.04;55.81
42727;BME280;28372;56.832;60.658;2023-06-04T01:40:26;97649.25;;;24.11;55.63
42727;BME280;28372;56.832;60.658;2023-06-04T01:42:55;97656.25;;;24.22;55.20
42727;BME280;28372;56.832;60.658;2023-06-04T01:45:24;97656.97;;;24.32;54.68
42727;BME280;28372;56.832;60.658;2023-06-04T01:47:54;97651.88;;;24.39;55.05
42727;BME280;28372;56.832;60.658;2023-06-04T01:50:24;97652.28;;;24.47;54.37
42727;BME280;28372;56.832;60.658;2023-06-04T01:52:52;97657.47;;;24.54;53.99
42727;BME280;28372;56.832;60.658;2023-06-04T01:55:19;97651.44;;;24.65;53.64
42727;BME280;28372;56.832;60.658;2023-06-04T01:57:47;97647.38;;;24.75;53.47
42727;BME280;28372;56.832;60.658;2023-06-04T02:00:16;97657.91;;;24.86;53.17
42727;BME280;28372;56.832;60.658;2023-06-04T02:02:45;97666.44;;;24.97;53.23
42727;BME280;28372;56.832;60.658;2023-06-04T02:05:15;97658.72;;;25.02;52.44
42727;BME280;28372;56.832;60.658;2023-06-04T02:07:45;97659.22;;;25.15;52.50
42727;BME280;28372;56.832;60.658;2023-06-04T02:10:18;97659.75;;;25.28;52.37
42727;BME280;28372;56.832;60.658;2023-06-04T02:13:00;97658.91;;;25.37;52.14
42727;BME280;28372;56.832;60.658;2023-06-04T02:15:31;97656.25;;;25.43;51.15
42727;BME280;28372;56.832;60.658;2023-06-04T02:18:18;97663.91;;;25.63;51.14
42727;BME280;28372;56.832;60.658;2023-06-04T02:21:08;97648.34;;;25.65;50.46
42727;BME280;28372;56.832;60.658;2023-06-04T02:23:36;97655.50;;;25.72;49.83
42727;BME280;28372;56.832;60.658;2023-06-04T02:26:03;97659.41;;;25.80;50.02
42727;BME280;28372;56.832;60.658;2023-06-04T02:28:31;97660.84;;;25.91;49.82
42727;BME280;28372;56.832;60.658;2023-06-04T02:30:59;97657.97;;;26.00;49.75
42727;BME280;28372;56.832;60.658;2023-06-04T02:33:26;97661.91;;;26.08;49.02
42727;BME280;28372;56.832;60.658;2023-06-04T02:35:56;97658.25;;;26.17;48.95
42727;BME280;28372;56.832;60.658;2023-06-04T02:38:24;97659.13;;;26.23;48.47
42727;BME280;28372;56.832;60.658;2023-06-04T02:40:52;97659.28;;;26.35;47.95
42727;BME280;28372;56.832;60.658;2023-06-04T02:43:19;97662.41;;;26.42;47.56
42727;BME280;28372;56.832;60.658;2023-06-04T02:45:47;97664.78;;;26.49;47.50
42727;BME280;28372;56.832;60.658;2023-06-04T02:48:15;97655.97;;;26.51;47.05
42727;BME280;28372;56.832;60.658;2023-06-04T02:50:43;97654.06;;;26.57;46.72
42727;BME280;28372;56.832;60.658;2023-06-04T02:53:11;97653.63;;;26.79;46.47
42727;BME280;28372;56.832;60.658;2023-06-04T02:55:39;97655.06;;;26.95;45.94
42727;BME280;28372;56.832;60.658;2023-06-04T02:58:09;97663.56;;;27.12;45.78
42727;BME280;28372;56.832;60.658;2023-06-04T03:00:37;97653.91;;;27.28;45.36
42727;BME280;28372;56.832;60.658;2023-06-04T03:03:05;97653.69;;;27.52;45.01
42727;BME280;28372;56.832;60.658;2023-06-04T03:05:33;97651.72;;;28.17;43.77
42727;BME280;28372;56.832;60.658;2023-06-04T03:08:02;97654.94;;;29.02;42.15
42727;BME280;28372;56.832;60.658;2023-06-04T03:10:31;97650.31;;;29.70;40.39
42727;BME280;28372;56.832;60.658;2023-06-04T03:12:59;97646.22;;;30.39;38.82
42727;BME280;28372;56.832;60.658;2023-06-04T03:15:27;97646.34;;;30.92;37.41
42727;BME280;28372;56.832;60.658;2023-06-04T03:17:54;97654.75;;;31.40;36.91
42727;BME280;28372;56.832;60.658;2023-06-04T03:20:22;97655.69;;;31.90;36.13
42727;BME280;28372;56.832;60.658;2023-06-04T03:22:54;97646.38;;;32.37;35.05
42727;BME280;28372;56.832;60.658;2023-06-04T03:25:22;97654.63;;;32.78;34.22
42727;BME280;28372;56.832;60.658;2023-06-04T03:27:50;97650.03;;;33.19;33.26
42727;BME280;28372;56.832;60.658;2023-06-04T03:30:18;97650.16;;;33.97;32.39
42727;BME280;28372;56.832;60.658;2023-06-04T03:33:00;97643.78;;;34.43;31.62
42727;BME280;28372;56.832;60.658;2023-06-04T03:35:28;97645.22;;;35.24;29.95
42727;BME280;28372;56.832;60.658;2023-06-04T03:37:56;97648.13;;;35.88;29.01
42727;BME280;28372;56.832;60.658;2023-06-04T03:40:25;97650.03;;;36.72;27.67
42727;BME280;28372;56.832;60.658;2023-06-04T03:42:53;97649.28;;;37.08;27.23
42727;BME280;28372;56.832;60.658;2023-06-04T03:45:26;97659.19;;;37.37;26.83
42727;BME280;28372;56.832;60.658;2023-06-04T03:47:55;97655.47;;;37.66;26.68
42727;BME280;28372;56.832;60.658;2023-06-04T03:50:23;97654.34;;;37.61;26.83
42727;BME280;28372;56.832;60.658;2023-06-04T03:52:52;97645.16;;;37.76;26.42
42727;BME280;28372;56.832;60.658;2023-06-04T03:55:20;97647.22;;;37.91;26.00
42727;BME280;28372;56.832;60.658;2023-06-04T03:57:49;97649.09;;;37.88;25.78
42727;BME280;28372;56.832;60.658;2023-06-04T04:00:18;97644.03;;;38.33;25.58
42727;BME280;28372;56.832;60.658;2023-06-04T04:02:50;97649.78;;;38.82;24.54
42727;BME280;28372;56.832;60.658;2023-06-04T04:05:22;97648.09;;;39.19;24.59
42727;BME280;28372;56.832;60.658;2023-06-04T04:07:50;97645.91;;;39.76;23.78
42727;BME280;28372;56.832;60.658;2023-06-04T04:10:23;97647.34;;;40.10;23.07
42727;BME280;28372;56.832;60.658;2023-06-04T04:12:51;97637.09;;;39.89;22.93
42727;BME280;28372;56.832;60.658;2023-06-04T04:15:23;97652.63;;;40.31;22.37
42727;BME280;28372;56.832;60.658;2023-06-04T04:17:52;97648.00;;;40.61;22.23
42727;BME280;28372;56.832;60.658;2023-06-04T04:20:20;97643.44;;;40.66;22.01
42727;BME280;28372;56.832;60.658;2023-06-04T04:22:54;97637.63;;;40.38;22.47
42727;BME280;28372;56.832;60.658;2023-06-04T04:25:23;97647.06;;;40.41;22.40
42727;BME280;28372;56.832;60.658;2023-06-04T04:27:51;97640.41;;;40.99;20.77
42727;BME280;28372;56.832;60.658;2023-06-04T04:30:19;97635.66;;;41.29;20.93
42727;BME280;28372;56.832;60.658;2023-06-04T04:32:50;97646.31;;;41.65;20.80
42727;BME280;28372;56.832;60.658;2023-06-04T04:35:27;97635.56;;;41.73;20.67
42727;BME280;28372;56.832;60.658;2023-06-04T04:37:58;97637.41;;;41.78;20.89
42727;BME280;28372;56.832;60.658;2023-06-04T04:40:26;97623.97;;;41.89;20.79
42727;BME280;28372;56.832;60.658;2023-06-04T04:42:57;97633.63;;;41.76;20.94
42727;BME280;28372;56.832;60.658;2023-06-04T04:45:25;97637.44;;;41.88;20.29
42727;BME280;28372;56.832;60.658;2023-06-04T04:47:57;97625.69;;;42.02;20.67
42727;BME280;28372;56.832;60.658;2023-06-04T04:50:25;97632.25;;;42.14;20.34
42727;BME280;28372;56.832;60.658;2023-06-04T04:52:53;97627.34;;;41.68;20.08
42727;BME280;28372;56.832;60.658;2023-06-04T04:55:21;97626.56;;;41.30;20.92
42727;BME280;28372;56.832;60.658;2023-06-04T04:57:50;97630.84;;;41.49;20.69
42727;BME280;28372;56.832;60.658;2023-06-04T05:00:19;97637.53;;;41.16;20.85
42727;BME280;28372;56.832;60.658;2023-06-04T05:02:51;97656.84;;;40.83;21.39
42727;BME280;28372;56.832;60.658;2023-06-04T05:05:19;97637.50;;;40.54;21.63
42727;BME280;28372;56.832;60.658;2023-06-04T05:07:49;97637.63;;;41.08;20.76
42727;BME280;28372;56.832;60.658;2023-06-04T05:10:18;97623.34;;;41.43;20.57
42727;BME280;28372;56.832;60.658;2023-06-04T05:12:57;97636.28;;;41.64;20.23
42727;BME280;28372;56.832;60.658;2023-06-04T05:15:32;97626.22;;;41.81;20.00
42727;BME280;28372;56.832;60.658;2023-06-04T05:18:02;97621.63;;;41.95;19.21
42727;BME280;28372;56.832;60.658;2023-06-04T05:20:34;97614.09;;;42.27;19.39
42727;BME280;28372;56.832;60.658;2023-06-04T05:23:09;97610.72;;;42.01;18.68
42727;BME280;28372;56.832;60.658;2023-06-04T05:25:37;97612.59;;;41.79;18.89
42727;BME280;28372;56.832;60.658;2023-06-04T05:28:06;97618.53;;;41.09;19.06
42727;BME280;28372;56.832;60.658;2023-06-04T05:30:34;97629.06;;;40.99;19.03
42727;BME280;28372;56.832;60.658;2023-06-04T05:33:02;97607.06;;;40.72;19.40
42727;BME280;28372;56.832;60.658;2023-06-04T05:35:30;97611.66;;;40.67;20.21
42727;BME280;28372;56.832;60.658;2023-06-04T05:38:00;97615.75;;;40.74;20.41
42727;BME280;28372;56.832;60.658;2023-06-04T05:40:29;97605.63;;;40.46;20.81
42727;BME280;28372;56.832;60.658;2023-06-04T05:42:57;97615.06;;;40.31;20.31
42727;BME280;28372;56.832;60.658;2023-06-04T05:45:25;97612.97;;;40.31;20.26
42727;BME280;28372;56.832;60.658;2023-06-04T05:47:54;97616.81;;;40.43;20.35
42727;BME280;28372;56.832;60.658;2023-06-04T05:50:25;97603.91;;;40.50;20.06
42727;BME280;28372;56.832;60.658;2023-06-04T05:52:53;97601.72;;;40.76;20.28
42727;BME280;28372;56.832;60.658;2023-06-04T05:55:22;97600.97;;;40.75;20.30
42727;BME280;28372;56.832;60.658;2023-06-04T05:57:50;97598.47;;;40.62;19.94
42727;BME280;28372;56.832;60.658;2023-06-04T06:00:21;97596.44;;;40.72;19.62
42727;BME280;28372;56.832;60.658;2023-06-04T06:02:51;97601.53;;;40.91;20.04
42727;BME280;28372;56.832;60.658;2023-06-04T06:05:31;97590.63;;;41.15;19.68
42727;BME280;28372;56.832;60.658;2023-06-04T06:07:59;97583.19;;;41.47;19.47
42727;BME280;28372;56.832;60.658;2023-06-04T06:10:27;97588.16;;;41.56;18.94
42727;BME280;28372;56.832;60.658;2023-06-04T06:12:56;97588.91;;;41.30;19.13
42727;BME280;28372;56.832;60.658;2023-06-04T06:15:23;97578.88;;;41.19;19.08
42727;BME280;28372;56.832;60.658;2023-06-04T06:17:52;97575.50;;;41.30;19.30
42727;BME280;28372;56.832;60.658;2023-06-04T06:20:20;97575.25;;;41.36;18.72
42727;BME280;28372;56.832;60.658;2023-06-04T06:22:49;97575.13;;;41.16;18.54
42727;BME280;28372;56.832;60.658;2023-06-04T06:25:19;97572.13;;;41.41;19.06
42727;BME280;28372;56.832;60.658;2023-06-04T06:27:59;97569.19;;;41.59;18.96
42727;BME280;28372;56.832;60.658;2023-06-04T06:30:27;97568.72;;;41.53;19.23
42727;BME280;28372;56.832;60.658;2023-06-04T06:32:55;97567.19;;;41.42;18.26
42727;BME280;28372;56.832;60.658;2023-06-04T06:35:23;97573.63;;;41.15;17.90
42727;BME280;28372;56.832;60.658;2023-06-04T06:37:51;97575.41;;;41.10;17.84
42727;BME280;28372;56.832;60.658;2023-06-04T06:40:19;97576.25;;;41.03;17.75
42727;BME280;28372;56.832;60.658;2023-06-04T06:42:50;97585.56;;;41.14;17.79
42727;BME280;28372;56.832;60.658;2023-06-04T06:45:21;97580.84;;;41.26;18.10
42727;BME280;28372;56.832;60.658;2023-06-04T06:47:49;97568.69;;;41.43;17.84
42727;BME280;28372;56.832;60.658;2023-06-04T06:50:16;97580.56;;;41.69;18.02
42727;BME280;28372;56.832;60.658;2023-06-04T06:52:44;97565.25;;;41.44;17.79
42727;BME280;28372;56.832;60.658;2023-06-04T06:55:12;97578.00;;;41.26;18.10
42727;BME280;28372;56.832;60.658;2023-06-04T06:57:39;97571.63;;;41.35;17.75
42727;BME280;28372;56.832;60.658;2023-06-04T07:00:08;97572.13;;;41.41;17.91
42727;BME280;28372;56.832;60.658;2023-06-04T07:02:36;97571.28;;;41.31;17.88
42727;BME280;28372;56.832;60.658;2023-06-04T07:05:04;97576.72;;;41.09;17.85
42727;BME280;28372;56.832;60.658;2023-06-04T07:07:32;97581.16;;;41.03;18.17
42727;BME280;28372;56.832;60.658;2023-06-04T07:09:59;97586.34;;;41.24;18.13
42727;BME280;28372;56.832;60.658;2023-06-04T07:12:28;97574.44;;;40.81;18.38
42727;BME280;28372;56.832;60.658;2023-06-04T07:14:56;97558.56;;;40.15;18.64
42727;BME280;28372;56.832;60.658;2023-06-04T07:17:23;97547.66;;;40.29;18.69
42727;BME280;28372;56.832;60.658;2023-06-04T07:19:51;97547.28;;;40.42;18.82
42727;BME280;28372;56.832;60.658;2023-06-04T07:22:18;97542.03;;;40.56;18.42
42727;BME280;28372;56.832;60.658;2023-06-04T07:24:46;97537.03;;;40.65;18.25
42727;BME280;28372;56.832;60.658;2023-06-04T07:27:15;97544.69;;;40.72;17.88
42727;BME280;28372;56.832;60.658;2023-06-04T07:29:44;97542.97;;;40.86;18.32
42727;BME280;28372;56.832;60.658;2023-06-04T07:32:12;97539.81;;;40.82;18.21
42727;BME280;28372;56.832;60.658;2023-06-04T07:34:40;97532.00;;;40.73;17.91
42727;BME280;28372;56.832;60.658;2023-06-04T07:37:08;97539.00;;;40.72;18.32
42727;BME280;28372;56.832;60.658;2023-06-04T07:39:36;97535.59;;;40.73;18.16
42727;BME280;28372;56.832;60.658;2023-06-04T07:42:04;97533.09;;;40.78;18.44
42727;BME280;28372;56.832;60.658;2023-06-04T07:44:36;97530.41;;;40.80;17.74
42727;BME280;28372;56.832;60.658;2023-06-04T07:47:04;97528.63;;;40.57;18.10
42727;BME280;28372;56.832;60.658;2023-06-04T07:49:32;97526.13;;;40.43;17.91
42727;BME280;28372;56.832;60.658;2023-06-04T07:52:00;97524.28;;;40.38;18.43
42727;BME280;28372;56.832;60.658;2023-06-04T07:54:28;97519.13;;;40.45;18.29
42727;BME280;28372;56.832;60.658;2023-06-04T07:56:55;97522.81;;;40.37;17.99
42727;BME280;28372;56.832;60.658;2023-06-04T07:59:24;97528.47;;;40.37;17.78
42727;BME280;28372;56.832;60.658;2023-06-04T08:01:52;97524.53;;;40.33;18.05
42727;BME280;28372;56.832;60.658;2023-06-04T08:04:20;97518.97;;;40.25;18.20
42727;BME280;28372;56.832;60.658;2023-06-04T08:06:48;97516.22;;;40.17;18.04
42727;BME280;28372;56.832;60.658;2023-06-04T08:09:17;97515.47;;;40.17;18.60
42727;BME280;28372;56.832;60.658;2023-06-04T08:11:44;97502.66;;;40.16;18.96
42727;BME280;28372;56.832;60.658;2023-06-04T08:14:12;97509.63;;;40.15;18.28
42727;BME280;28372;56.832;60.658;2023-06-04T08:16:40;97509.31;;;40.11;18.72
42727;BME280;28372;56.832;60.658;2023-06-04T08:19:21;97500.00;;;40.18;18.63
42727;BME280;28372;56.832;60.658;2023-06-04T08:21:57;97497.22;;;39.92;18.52
42727;BME280;28372;56.832;60.658;2023-06-04T08:24:38;97495.22;;;40.03;18.39
42727;BME280;28372;56.832;60.658;2023-06-04T08:27:25;97506.22;;;39.56;19.11
42727;BME280;28372;56.832;60.658;2023-06-04T08:30:13;97490.94;;;39.09;19.01
42727;BME280;28372;56.832;60.658;2023-06-04T08:33:01;97488.06;;;39.16;19.32
42727;BME280;28372;56.832;60.658;2023-06-04T08:35:33;97483.53;;;39.13;19.47
42727;BME280;28372;56.832;60.658;2023-06-04T08:38:01;97481.28;;;39.12;19.51
42727;BME280;28372;56.832;60.658;2023-06-04T08:40:29;97482.59;;;39.18;19.60
42727;BME280;28372;56.832;60.658;2023-06-04T08:42:58;97490.72;;;39.14;19.77
42727;BME280;28372;56.832;60.658;2023-06-04T08:45:27;97484.69;;;39.10;19.86
42727;BME280;28372;56.832;60.658;2023-06-04T08:47:55;97482.59;;;39.11;19.69
42727;BME280;28372;56.832;60.658;2023-06-04T08:50:24;97481.66;;;39.16;20.57
42727;BME280;28372;56.832;60.658;2023-06-04T08:52:54;97494.69;;;39.11;19.21
42727;BME280;28372;56.832;60.658;2023-06-04T08:55:23;97476.25;;;39.02;19.32
42727;BME280;28372;56.832;60.658;2023-06-04T08:57:51;97474.22;;;38.95;19.38
42727;BME280;28372;56.832;60.658;2023-06-04T09:00:19;97463.50;;;38.94;19.60
42727;BME280;28372;56.832;60.658;2023-06-04T09:02:49;97461.13;;;38.82;19.64
42727;BME280;28372;56.832;60.658;2023-06-04T09:05:22;97465.00;;;38.95;19.93
42727;BME280;28372;56.832;60.658;2023-06-04T09:07:53;97461.78;;;38.25;20.22
42727;BME280;28372;56.832;60.658;2023-06-04T09:10:24;97462.13;;;37.34;20.71
42727;BME280;28372;56.832;60.658;2023-06-04T09:12:54;97457.78;;;37.25;21.04
42727;BME280;28372;56.832;60.658;2023-06-04T09:15:23;97449.69;;;37.60;20.72
42727;BME280;28372;56.832;60.658;2023-06-04T09:17:50;97456.22;;;37.86;20.32
42727;BME280;28372;56.832;60.658;2023-06-04T09:20:22;97457.09;;;38.12;20.15
42727;BME280;28372;56.832;60.658;2023-06-04T09:22:50;97450.41;;;37.68;19.90
42727;BME280;28372;56.832;60.658;2023-06-04T09:25:26;97463.59;;;37.04;21.13
42727;BME280;28372;56.832;60.658;2023-06-04T09:27:56;97452.00;;;36.56;21.62
42727;BME280;28372;56.832;60.658;2023-06-04T09:30:24;97436.06;;;36.58;21.75
42727;BME280;28372;56.832;60.658;2023-06-04T09:32:52;97444.16;;;36.62;21.61
42727;BME280;28372;56.832;60.658;2023-06-04T09:35:21;97441.25;;;36.31;21.93
42727;BME280;28372;56.832;60.658;2023-06-04T09:37:55;97438.81;;;36.43;21.64
42727;BME280;28372;56.832;60.658;2023-06-04T09:40:35;97426.16;;;36.73;21.58
42727;BME280;28372;56.832;60.658;2023-06-04T09:43:04;97420.91;;;36.84;21.45
42727;BME280;28372;56.832;60.658;2023-06-04T09:45:33;97425.44;;;37.03;21.34
42727;BME280;28372;56.832;60.658;2023-06-04T09:48:03;97419.63;;;37.16;21.05
42727;BME280;28372;56.832;60.658;2023-06-04T09:50:36;97404.75;;;37.24;21.30
42727;BME280;28372;56.832;60.658;2023-06-04T09:53:20;97416.78;;;37.55;21.01
42727;BME280;28372;56.832;60.658;2023-06-04T09:56:01;97411.53;;;37.51;21.11
42727;BME280;28372;56.832;60.658;2023-06-04T09:58:31;97402.16;;;37.33;21.13
42727;BME280;28372;56.832;60.658;2023-06-04T10:01:00;97401.41;;;37.33;20.82
42727;BME280;28372;56.832;60.658;2023-06-04T10:03:36;97399.31;;;37.33;21.11
42727;BME280;28372;56.832;60.658;2023-06-04T10:06:05;97398.19;;;37.21;21.64
42727;BME280;28372;56.832;60.658;2023-06-04T10:08:34;97391.06;;;37.12;21.06
42727;BME280;28372;56.832;60.658;2023-06-04T10:11:02;97402.31;;;37.12;21.49
42727;BME280;28372;56.832;60.658;2023-06-04T10:16:14;97384.28;;;37.00;20.81
42727;BME280;28372;56.832;60.658;2023-06-04T10:19:00;97382.03;;;36.98;21.20
42727;BME280;28372;56.832;60.658;2023-06-04T10:21:30;97376.56;;;37.00;21.09
42727;BME280;28372;56.832;60.658;2023-06-04T10:24:03;97369.63;;;36.86;21.11
42727;BME280;28372;56.832;60.658;2023-06-04T10:26:33;97369.25;;;36.82;21.16
42727;BME280;28372;56.832;60.658;2023-06-04T10:29:02;97369.03;;;36.64;20.82
42727;BME280;28372;56.832;60.658;2023-06-04T10:31:30;97373.03;;;36.25;21.35
42727;BME280;28372;56.832;60.658;2023-06-04T10:33:58;97378.91;;;35.82;22.42
42727;BME280;28372;56.832;60.658;2023-06-04T10:36:25;97379.44;;;35.44;23.35
42727;BME280;28372;56.832;60.658;2023-06-04T10:38:55;97382.69;;;35.06;23.61
42727;BME280;28372;56.832;60.658;2023-06-04T10:41:24;97385.38;;;34.91;23.57
42727;BME280;28372;56.832;60.658;2023-06-04T10:44:01;97383.44;;;34.64;24.41
42727;BME280;28372;56.832;60.658;2023-06-04T10:46:39;97368.78;;;34.58;24.52
42727;BME280;28372;56.832;60.658;2023-06-04T10:49:10;97360.69;;;34.20;24.32
42727;BME280;28372;56.832;60.658;2023-06-04T10:51:39;97359.59;;;34.23;24.58
42727;BME280;28372;56.832;60.658;2023-06-04T10:54:08;97359.63;;;34.10;24.81
42727;BME280;28372;56.832;60.658;2023-06-04T10:56:35;97350.59;;;34.04;24.88
42727;BME280;28372;56.832;60.658;2023-06-04T10:59:14;97362.31;;;34.29;24.50
42727;BME280;28372;56.832;60.658;2023-06-04T11:01:43;97346.09;;;34.01;25.14
42727;BME280;28372;56.832;60.658;2023-06-04T11:04:22;97349.13;;;34.24;24.75
42727;BME280;28372;56.832;60.658;2023-06-04T11:07:03;97341.03;;;34.34;24.84
42727;BME280;28372;56.832;60.658;2023-06-04T11:09:37;97341.78;;;34.34;25.11
42727;BME280;28372;56.832;60.658;2023-06-04T11:12:06;97333.09;;;34.45;24.59
42727;BME280;28372;56.832;60.658;2023-06-04T11:14:34;97319.75;;;34.59;24.62
42727;BME280;28372;56.832;60.658;2023-06-04T11:17:11;97317.56;;;34.87;24.46
42727;BME280;28372;56.832;60.658;2023-06-04T11:19:39;97311.03;;;34.92;23.98
42727;BME280;28372;56.832;60.658;2023-06-04T11:22:11;97306.09;;;35.06;23.11
42727;BME280;28372;56.832;60.658;2023-06-04T11:24:40;97307.22;;;35.10;22.59
42727;BME280;28372;56.832;60.658;2023-06-04T11:27:08;97301.28;;;35.22;22.00
42727;BME280;28372;56.832;60.658;2023-06-04T11:29:49;97304.81;;;35.14;22.64
42727;BME280;28372;56.832;60.658;2023-06-04T11:32:22;97300.50;;;35.13;22.95
42727;BME280;28372;56.832;60.658;2023-06-04T11:34:50;97298.44;;;34.85;23.07
42727;BME280;28372;56.832;60.658;2023-06-04T11:37:18;97291.94;;;34.48;22.33
42727;BME280;28372;56.832;60.658;2023-06-04T11:39:46;97293.16;;;34.39;23.08
42727;BME280;28372;56.832;60.658;2023-06-04T11:42:14;97301.41;;;34.37;23.37
42727;BME280;28372;56.832;60.658;2023-06-04T11:44:42;97280.22;;;34.36;23.50
42727;BME280;28372;56.832;60.658;2023-06-04T11:47:15;97281.75;;;34.37;23.45
42727;BME280;28372;56.832;60.658;2023-06-04T11:49:43;97274.56;;;34.28;23.79
42727;BME280;28372;56.832;60.658;2023-06-04T11:52:11;97292.19;;;34.37;23.78
42727;BME280;28372;56.832;60.658;2023-06-04T11:54:39;97313.72;;;34.21;24.49
42727;BME280;28372;56.832;60.658;2023-06-04T11:57:08;97364.66;;;33.23;34.15
42727;BME280;28372;56.832;60.658;2023-06-04T11:59:36;97360.31;;;32.06;51.44
42727;BME280;28372;56.832;60.658;2023-06-04T12:02:04;97356.31;;;31.82;51.94
42727;BME280;28372;56.832;60.658;2023-06-04T12:04:34;97365.16;;;31.86;43.54
42727;BME280;28372;56.832;60.658;2023-06-04T12:07:02;97367.72;;;31.84;44.91
42727;BME280;28372;56.832;60.658;2023-06-04T12:09:33;97361.97;;;31.76;45.85
42727;BME280;28372;56.832;60.658;2023-06-04T12:12:06;97356.84;;;31.81;44.40
42727;BME280;28372;56.832;60.658;2023-06-04T12:14:34;97342.88;;;31.56;45.31
42727;BME280;28372;56.832;60.658;2023-06-04T12:17:08;97349.59;;;32.10;40.01
42727;BME280;28372;56.832;60.658;2023-06-04T12:19:50;97367.06;;;32.16;38.12
42727;BME280;28372;56.832;60.658;2023-06-04T12:22:18;97399.34;;;31.49;42.01
42727;BME280;28372;56.832;60.658;2023-06-04T12:24:51;97420.28;;;32.10;36.44
42727;BME280;28372;56.832;60.658;2023-06-04T12:27:24;97426.44;;;31.84;40.45
42727;BME280;28372;56.832;60.658;2023-06-04T12:29:59;97439.06;;;31.91;40.80
42727;BME280;28372;56.832;60.658;2023-06-04T12:32:35;97410.69;;;32.44;31.67
42727;BME280;28372;56.832;60.658;2023-06-04T12:35:03;97399.56;;;32.00;40.75
42727;BME280;28372;56.832;60.658;2023-06-04T12:37:32;97391.25;;;31.94;39.64
42727;BME280;28372;56.832;60.658;2023-06-04T12:40:00;97389.03;;;32.06;36.55
42727;BME280;28372;56.832;60.658;2023-06-04T12:42:30;97395.50;;;32.39;29.92
42727;BME280;28372;56.832;60.658;2023-06-04T12:44:58;97381.38;;;31.69;39.56
42727;BME280;28372;56.832;60.658;2023-06-04T12:47:26;97396.31;;;31.22;39.13
42727;BME280;28372;56.832;60.658;2023-06-04T12:49:54;97422.00;;;30.84;37.13
42727;BME280;28372;56.832;60.658;2023-06-04T12:52:22;97436.97;;;30.45;41.24
42727;BME280;28372;56.832;60.658;2023-06-04T12:54:49;97452.31;;;30.10;46.58
42727;BME280;28372;56.832;60.658;2023-06-04T12:57:17;97494.94;;;30.05;45.73
42727;BME280;28372;56.832;60.658;2023-06-04T12:59:45;97526.53;;;27.68;51.61
42727;BME280;28372;56.832;60.658;2023-06-04T13:02:13;97521.81;;;25.57;58.68
42727;BME280;28372;56.832;60.658;2023-06-04T13:04:42;97482.22;;;25.86;58.27
42727;BME280;28372;56.832;60.658;2023-06-04T13:07:12;97448.44;;;26.03;58.73
42727;BME280;28372;56.832;60.658;2023-06-04T13:09:39;97427.50;;;26.43;58.12
42727;BME280;28372;56.832;60.658;2023-06-04T13:12:08;97397.47;;;26.15;62.55
42727;BME280;28372;56.832;60.658;2023-06-04T13:14:37;97352.56;;;25.90;68.72